sensor_id;sensor_type;location;lat;lon;timestamp;P1;durP1;ratioP1;P2;durP2;ratioP2
21480;SDS011;10902;48.158;8.634;2023-04-15T00:02:16;13.10;;;7.03;;
21480;SDS011;10902;48.158;8.634;2023-04-15T00:04:43;16.70;;;8.27;;
21480;SDS011;10902;48.158;8.634;2023-04-15T00:07:09;12.63;;;7.35;;
21480;SDS011;10902;48.158;8.634;2023-04-15T00:09:35;12.25;;;7.07;;
21480;SDS011;10902;48.158;8.634;2023-04-15T00:12:01;13.25;;;6.63;;
21480;SDS011;10902;48.158;8.634;2023-04-15T00:14:26;12.63;;;7.68;;
21480;SDS011;10902;48.158;8.634;2023-04-15T00:16:52;13.43;;;7.32;;
21480;SDS011;10902;48.158;8.634;2023-04-15T00:19:20;13.90;;;7.00;;
21480;SDS011;10902;48.158;8.634;2023-04-15T00:21:46;12.45;;;6.93;;
21480;SDS011;10902;48.158;8.634;2023-04-15T00:24:11;11.98;;;6.25;;
21480;SDS011;10902;48.158;8.634;2023-04-15T00:26:37;10.52;;;5.72;;
21480;SDS011;10902;48.158;8.634;2023-04-15T00:29:03;11.98;;;6.18;;
21480;SDS011;10902;48.158;8.634;2023-04-15T00:31:29;11.88;;;5.53;;
21480;SDS011;10902;48.158;8.634;2023-04-15T00:33:55;13.02;;;5.60;;
21480;SDS011;10902;48.158;8.634;2023-04-15T00:36:21;13.38;;;6.30;;
21480;SDS011;10902;48.158;8.634;2023-04-15T00:38:47;12.45;;;6.00;;
21480;SDS011;10902;48.158;8.634;2023-04-15T00:41:13;9.38;;;5.47;;
21480;SDS011;10902;48.158;8.634;2023-04-15T00:43:39;12.25;;;6.78;;
21480;SDS011;10902;48.158;8.634;2023-04-15T00:46:05;13.38;;;5.95;;
21480;SDS011;10902;48.158;8.634;2023-04-15T00:48:31;12.38;;;6.40;;
21480;SDS011;10902;48.158;8.634;2023-04-15T00:50:57;11.95;;;7.25;;
21480;SDS011;10902;48.158;8.634;2023-04-15T00:53:23;12.82;;;8.68;;
21480;SDS011;10902;48.158;8.634;2023-04-15T00:55:48;14.15;;;7.90;;
21480;SDS011;10902;48.158;8.634;2023-04-15T00:58:15;13.82;;;7.90;;
21480;SDS011;10902;48.158;8.634;2023-04-15T01:00:41;14.50;;;7.63;;
21480;SDS011;10902;48.158;8.634;2023-04-15T01:03:07;12.18;;;7.70;;
21480;SDS011;10902;48.158;8.634;2023-04-15T01:05:33;15.38;;;8.45;;
21480;SDS011;10902;48.158;8.634;2023-04-15T01:07:58;13.02;;;7.32;;
21480;SDS011;10902;48.158;8.634;2023-04-15T01:10:24;12.90;;;5.93;;
21480;SDS011;10902;48.158;8.634;2023-04-15T01:12:50;11.77;;;6.15;;
21480;SDS011;10902;48.158;8.634;2023-04-15T01:15:16;10.65;;;6.05;;
21480;SDS011;10902;48.158;8.634;2023-04-15T01:17:42;10.57;;;6.10;;
21480;SDS011;10902;48.158;8.634;2023-04-15T01:20:07;12.57;;;7.25;;
21480;SDS011;10902;48.158;8.634;2023-04-15T01:22:36;14.65;;;7.68;;
21480;SDS011;10902;48.158;8.634;2023-04-15T01:25:44;14.07;;;7.70;;
21480;SDS011;10902;48.158;8.634;2023-04-15T01:27:55;14.32;;;7.28;;
21480;SDS011;10902;48.158;8.634;2023-04-15T01:30:21;13.77;;;6.72;;
21480;SDS011;10902;48.158;8.634;2023-04-15T01:32:46;11.88;;;6.80;;
21480;SDS011;10902;48.158;8.634;2023-04-15T01:35:12;13.88;;;7.70;;
21480;SDS011;10902;48.158;8.634;2023-04-15T01:37:37;16.52;;;7.43;;
21480;SDS011;10902;48.158;8.634;2023-04-15T01:40:03;12.13;;;6.75;;
21480;SDS011;10902;48.158;8.634;2023-04-15T01:42:29;12.68;;;6.45;;
21480;SDS011;10902;48.158;8.634;2023-04-15T01:44:55;12.90;;;6.57;;
21480;SDS011;10902;48.158;8.634;2023-04-15T01:47:21;11.98;;;6.45;;
21480;SDS011;10902;48.158;8.634;2023-04-15T01:49:46;11.68;;;5.90;;
21480;SDS011;10902;48.158;8.634;2023-04-15T01:52:12;13.45;;;6.38;;
21480;SDS011;10902;48.158;8.634;2023-04-15T01:54:38;15.10;;;6.28;;
21480;SDS011;10902;48.158;8.634;2023-04-15T01:57:03;13.48;;;6.25;;
21480;SDS011;10902;48.158;8.634;2023-04-15T01:59:29;14.95;;;7.10;;
21480;SDS011;10902;48.158;8.634;2023-04-15T02:01:55;13.32;;;6.05;;
21480;SDS011;10902;48.158;8.634;2023-04-15T02:04:21;13.77;;;6.55;;
21480;SDS011;10902;48.158;8.634;2023-04-15T02:06:47;15.52;;;7.07;;
21480;SDS011;10902;48.158;8.634;2023-04-15T02:09:13;10.43;;;6.68;;
21480;SDS011;10902;48.158;8.634;2023-04-15T02:11:38;12.93;;;6.68;;
21480;SDS011;10902;48.158;8.634;2023-04-15T02:14:04;17.30;;;8.27;;
21480;SDS011;10902;48.158;8.634;2023-04-15T02:16:30;14.77;;;6.80;;
21480;SDS011;10902;48.158;8.634;2023-04-15T02:18:56;13.02;;;7.25;;
21480;SDS011;10902;48.158;8.634;2023-04-15T02:21:22;13.88;;;7.00;;
21480;SDS011;10902;48.158;8.634;2023-04-15T02:23:47;14.95;;;7.63;;
21480;SDS011;10902;48.158;8.634;2023-04-15T02:26:13;12.90;;;7.22;;
21480;SDS011;10902;48.158;8.634;2023-04-15T02:28:39;14.63;;;6.80;;
21480;SDS011;10902;48.158;8.634;2023-04-15T02:31:05;12.82;;;7.22;;
21480;SDS011;10902;48.158;8.634;2023-04-15T02:33:31;12.48;;;7.05;;
21480;SDS011;10902;48.158;8.634;2023-04-15T02:35:57;15.98;;;7.53;;
21480;SDS011;10902;48.158;8.634;2023-04-15T02:38:23;11.88;;;6.47;;
21480;SDS011;10902;48.158;8.634;2023-04-15T02:40:49;14.05;;;6.65;;
21480;SDS011;10902;48.158;8.634;2023-04-15T02:43:15;17.23;;;7.72;;
21480;SDS011;10902;48.158;8.634;2023-04-15T02:45:44;18.20;;;7.63;;
21480;SDS011;10902;48.158;8.634;2023-04-15T02:48:10;17.13;;;7.95;;
21480;SDS011;10902;48.158;8.634;2023-04-15T02:50:35;15.45;;;7.65;;
21480;SDS011;10902;48.158;8.634;2023-04-15T02:53:03;15.55;;;8.07;;
21480;SDS011;10902;48.158;8.634;2023-04-15T02:55:29;12.90;;;7.70;;
21480;SDS011;10902;48.158;8.634;2023-04-15T02:57:55;14.80;;;7.30;;
21480;SDS011;10902;48.158;8.634;2023-04-15T03:00:23;10.93;;;6.65;;
21480;SDS011;10902;48.158;8.634;2023-04-15T03:02:49;12.35;;;7.03;;
21480;SDS011;10902;48.158;8.634;2023-04-15T03:05:20;13.02;;;6.57;;
21480;SDS011;10902;48.158;8.634;2023-04-15T03:07:49;10.10;;;6.22;;
21480;SDS011;10902;48.158;8.634;2023-04-15T03:10:17;12.95;;;5.93;;
21480;SDS011;10902;48.158;8.634;2023-04-15T03:12:44;10.23;;;6.35;;
21480;SDS011;10902;48.158;8.634;2023-04-15T03:15:09;11.48;;;7.43;;
21480;SDS011;10902;48.158;8.634;2023-04-15T03:17:35;13.07;;;7.50;;
21480;SDS011;10902;48.158;8.634;2023-04-15T03:20:01;11.85;;;6.97;;
21480;SDS011;10902;48.158;8.634;2023-04-15T03:22:29;11.35;;;6.82;;
21480;SDS011;10902;48.158;8.634;2023-04-15T03:24:57;13.35;;;7.13;;
21480;SDS011;10902;48.158;8.634;2023-04-15T03:27:23;12.60;;;7.45;;
21480;SDS011;10902;48.158;8.634;2023-04-15T03:29:49;12.85;;;7.78;;
21480;SDS011;10902;48.158;8.634;2023-04-15T03:32:14;16.58;;;8.65;;
21480;SDS011;10902;48.158;8.634;2023-04-15T03:34:40;12.52;;;8.90;;
21480;SDS011;10902;48.158;8.634;2023-04-15T03:37:06;12.10;;;7.95;;
21480;SDS011;10902;48.158;8.634;2023-04-15T03:39:32;12.85;;;7.68;;
21480;SDS011;10902;48.158;8.634;2023-04-15T03:41:58;14.63;;;7.13;;
21480;SDS011;10902;48.158;8.634;2023-04-15T03:44:27;13.30;;;7.70;;
21480;SDS011;10902;48.158;8.634;2023-04-15T03:46:52;12.02;;;7.18;;
21480;SDS011;10902;48.158;8.634;2023-04-15T03:49:18;17.40;;;8.15;;
21480;SDS011;10902;48.158;8.634;2023-04-15T03:51:44;16.33;;;8.88;;
21480;SDS011;10902;48.158;8.634;2023-04-15T03:54:10;15.00;;;7.30;;
21480;SDS011;10902;48.158;8.634;2023-04-15T03:56:38;12.20;;;7.47;;
21480;SDS011;10902;48.158;8.634;2023-04-15T03:59:03;14.38;;;7.07;;
21480;SDS011;10902;48.158;8.634;2023-04-15T04:01:29;14.88;;;7.90;;
21480;SDS011;10902;48.158;8.634;2023-04-15T04:03:55;16.60;;;8.95;;
21480;SDS011;10902;48.158;8.634;2023-04-15T04:06:20;18.38;;;9.60;;
21480;SDS011;10902;48.158;8.634;2023-04-15T04:08:46;15.85;;;7.60;;
21480;SDS011;10902;48.158;8.634;2023-04-15T04:11:12;12.15;;;8.25;;
21480;SDS011;10902;48.158;8.634;2023-04-15T04:13:37;12.07;;;7.47;;
21480;SDS011;10902;48.158;8.634;2023-04-15T04:16:03;11.55;;;7.18;;
21480;SDS011;10902;48.158;8.634;2023-04-15T04:18:30;10.23;;;5.72;;
21480;SDS011;10902;48.158;8.634;2023-04-15T04:20:56;11.15;;;6.13;;
21480;SDS011;10902;48.158;8.634;2023-04-15T04:23:21;12.07;;;5.63;;
21480;SDS011;10902;48.158;8.634;2023-04-15T04:25:47;12.25;;;5.35;;
21480;SDS011;10902;48.158;8.634;2023-04-15T04:28:13;11.23;;;6.13;;
21480;SDS011;10902;48.158;8.634;2023-04-15T04:30:38;14.27;;;5.97;;
21480;SDS011;10902;48.158;8.634;2023-04-15T04:33:04;12.05;;;5.95;;
21480;SDS011;10902;48.158;8.634;2023-04-15T04:35:31;12.80;;;5.72;;
21480;SDS011;10902;48.158;8.634;2023-04-15T04:37:58;10.93;;;5.50;;
21480;SDS011;10902;48.158;8.634;2023-04-15T04:40:24;14.45;;;6.40;;
21480;SDS011;10902;48.158;8.634;2023-04-15T04:42:51;15.82;;;7.22;;
21480;SDS011;10902;48.158;8.634;2023-04-15T04:45:17;12.38;;;7.28;;
21480;SDS011;10902;48.158;8.634;2023-04-15T04:47:43;15.73;;;6.90;;
21480;SDS011;10902;48.158;8.634;2023-04-15T04:50:09;9.63;;;6.35;;
21480;SDS011;10902;48.158;8.634;2023-04-15T04:52:35;13.13;;;6.35;;
21480;SDS011;10902;48.158;8.634;2023-04-15T04:55:01;12.07;;;6.05;;
21480;SDS011;10902;48.158;8.634;2023-04-15T04:57:26;13.60;;;6.97;;
21480;SDS011;10902;48.158;8.634;2023-04-15T04:59:52;13.02;;;6.07;;
21480;SDS011;10902;48.158;8.634;2023-04-15T05:02:18;11.68;;;6.32;;
21480;SDS011;10902;48.158;8.634;2023-04-15T05:04:43;10.85;;;6.55;;
21480;SDS011;10902;48.158;8.634;2023-04-15T05:07:09;13.18;;;6.63;;
21480;SDS011;10902;48.158;8.634;2023-04-15T05:09:34;11.38;;;6.18;;
21480;SDS011;10902;48.158;8.634;2023-04-15T05:12:00;13.73;;;6.22;;
21480;SDS011;10902;48.158;8.634;2023-04-15T05:14:27;10.55;;;5.65;;
21480;SDS011;10902;48.158;8.634;2023-04-15T05:16:53;10.43;;;5.20;;
21480;SDS011;10902;48.158;8.634;2023-04-15T05:19:19;7.70;;;4.20;;
21480;SDS011;10902;48.158;8.634;2023-04-15T05:21:44;8.77;;;4.82;;
21480;SDS011;10902;48.158;8.634;2023-04-15T05:24:10;9.85;;;5.22;;
21480;SDS011;10902;48.158;8.634;2023-04-15T05:26:35;8.43;;;4.57;;
21480;SDS011;10902;48.158;8.634;2023-04-15T05:29:01;9.18;;;4.40;;
21480;SDS011;10902;48.158;8.634;2023-04-15T05:31:27;8.63;;;4.68;;
21480;SDS011;10902;48.158;8.634;2023-04-15T05:33:52;9.25;;;4.75;;
21480;SDS011;10902;48.158;8.634;2023-04-15T05:36:18;7.18;;;3.90;;
21480;SDS011;10902;48.158;8.634;2023-04-15T05:38:43;9.18;;;4.43;;
21480;SDS011;10902;48.158;8.634;2023-04-15T05:41:09;10.55;;;4.50;;
21480;SDS011;10902;48.158;8.634;2023-04-15T05:43:35;10.02;;;4.60;;
21480;SDS011;10902;48.158;8.634;2023-04-15T05:46:00;9.82;;;3.85;;
21480;SDS011;10902;48.158;8.634;2023-04-15T05:48:26;8.68;;;4.35;;
21480;SDS011;10902;48.158;8.634;2023-04-15T05:50:51;7.97;;;3.97;;
21480;SDS011;10902;48.158;8.634;2023-04-15T05:53:17;8.32;;;4.05;;
21480;SDS011;10902;48.158;8.634;2023-04-15T05:55:43;9.80;;;4.00;;
21480;SDS011;10902;48.158;8.634;2023-04-15T05:58:08;9.85;;;4.45;;
21480;SDS011;10902;48.158;8.634;2023-04-15T06:00:34;7.40;;;3.92;;
21480;SDS011;10902;48.158;8.634;2023-04-15T06:03:00;5.75;;;3.50;;
21480;SDS011;10902;48.158;8.634;2023-04-15T06:05:26;7.85;;;3.88;;
21480;SDS011;10902;48.158;8.634;2023-04-15T06:07:51;10.05;;;4.03;;
21480;SDS011;10902;48.158;8.634;2023-04-15T06:10:17;9.07;;;4.05;;
21480;SDS011;10902;48.158;8.634;2023-04-15T06:12:43;7.32;;;3.90;;
21480;SDS011;10902;48.158;8.634;2023-04-15T06:15:08;7.55;;;3.78;;
21480;SDS011;10902;48.158;8.634;2023-04-15T06:17:35;9.60;;;3.90;;
21480;SDS011;10902;48.158;8.634;2023-04-15T06:20:01;9.18;;;3.80;;
21480;SDS011;10902;48.158;8.634;2023-04-15T06:22:27;6.38;;;3.00;;
21480;SDS011;10902;48.158;8.634;2023-04-15T06:24:52;7.60;;;3.30;;
21480;SDS011;10902;48.158;8.634;2023-04-15T06:27:18;9.55;;;4.95;;
21480;SDS011;10902;48.158;8.634;2023-04-15T06:29:44;8.95;;;3.42;;
21480;SDS011;10902;48.158;8.634;2023-04-15T06:32:10;6.38;;;2.80;;
21480;SDS011;10902;48.158;8.634;2023-04-15T06:34:36;7.13;;;3.42;;
21480;SDS011;10902;48.158;8.634;2023-04-15T06:37:01;7.65;;;3.28;;
21480;SDS011;10902;48.158;8.634;2023-04-15T06:39:27;11.40;;;4.13;;
21480;SDS011;10902;48.158;8.634;2023-04-15T06:41:53;6.95;;;3.13;;
21480;SDS011;10902;48.158;8.634;2023-04-15T06:44:18;7.88;;;3.30;;
21480;SDS011;10902;48.158;8.634;2023-04-15T06:46:44;6.18;;;3.15;;
21480;SDS011;10902;48.158;8.634;2023-04-15T06:49:10;7.00;;;3.00;;
21480;SDS011;10902;48.158;8.634;2023-04-15T06:51:35;6.40;;;3.00;;
21480;SDS011;10902;48.158;8.634;2023-04-15T06:54:01;6.45;;;2.88;;
21480;SDS011;10902;48.158;8.634;2023-04-15T06:56:29;7.22;;;3.22;;
21480;SDS011;10902;48.158;8.634;2023-04-15T06:58:58;7.28;;;3.30;;
21480;SDS011;10902;48.158;8.634;2023-04-15T07:01:24;6.18;;;3.25;;
21480;SDS011;10902;48.158;8.634;2023-04-15T07:03:50;10.20;;;3.97;;
21480;SDS011;10902;48.158;8.634;2023-04-15T07:06:16;8.38;;;3.67;;
21480;SDS011;10902;48.158;8.634;2023-04-15T07:08:41;6.75;;;3.50;;
21480;SDS011;10902;48.158;8.634;2023-04-15T07:11:07;7.63;;;3.60;;
21480;SDS011;10902;48.158;8.634;2023-04-15T07:13:33;7.80;;;3.90;;
21480;SDS011;10902;48.158;8.634;2023-04-15T07:15:59;8.20;;;3.65;;
21480;SDS011;10902;48.158;8.634;2023-04-15T07:18:24;9.65;;;3.58;;
21480;SDS011;10902;48.158;8.634;2023-04-15T07:20:50;6.75;;;3.22;;
21480;SDS011;10902;48.158;8.634;2023-04-15T07:23:16;7.80;;;3.35;;
21480;SDS011;10902;48.158;8.634;2023-04-15T07:25:42;9.57;;;3.30;;
21480;SDS011;10902;48.158;8.634;2023-04-15T07:28:08;7.05;;;3.40;;
21480;SDS011;10902;48.158;8.634;2023-04-15T07:30:33;6.00;;;3.15;;
21480;SDS011;10902;48.158;8.634;2023-04-15T07:33:00;8.73;;;3.13;;
21480;SDS011;10902;48.158;8.634;2023-04-15T07:35:26;6.28;;;3.15;;
21480;SDS011;10902;48.158;8.634;2023-04-15T07:37:52;7.55;;;2.92;;
21480;SDS011;10902;48.158;8.634;2023-04-15T07:40:17;8.95;;;3.30;;
21480;SDS011;10902;48.158;8.634;2023-04-15T07:42:43;8.13;;;3.40;;
21480;SDS011;10902;48.158;8.634;2023-04-15T07:45:10;7.78;;;3.13;;
21480;SDS011;10902;48.158;8.634;2023-04-15T07:47:36;7.68;;;2.50;;
21480;SDS011;10902;48.158;8.634;2023-04-15T07:50:02;6.53;;;2.58;;
21480;SDS011;10902;48.158;8.634;2023-04-15T07:52:28;6.72;;;2.47;;
21480;SDS011;10902;48.158;8.634;2023-04-15T07:54:53;8.18;;;3.00;;
21480;SDS011;10902;48.158;8.634;2023-04-15T07:57:19;9.63;;;2.97;;
21480;SDS011;10902;48.158;8.634;2023-04-15T07:59:44;6.60;;;2.65;;
21480;SDS011;10902;48.158;8.634;2023-04-15T08:02:10;8.10;;;3.20;;
21480;SDS011;10902;48.158;8.634;2023-04-15T08:04:36;6.93;;;2.20;;
21480;SDS011;10902;48.158;8.634;2023-04-15T08:07:02;9.07;;;2.75;;
21480;SDS011;10902;48.158;8.634;2023-04-15T08:09:28;6.50;;;2.53;;
21480;SDS011;10902;48.158;8.634;2023-04-15T08:11:54;6.32;;;1.95;;
21480;SDS011;10902;48.158;8.634;2023-04-15T08:14:21;8.13;;;2.50;;
21480;SDS011;10902;48.158;8.634;2023-04-15T08:16:46;5.00;;;2.08;;
21480;SDS011;10902;48.158;8.634;2023-04-15T08:19:12;6.88;;;2.05;;
21480;SDS011;10902;48.158;8.634;2023-04-15T08:21:37;6.55;;;2.35;;
21480;SDS011;10902;48.158;8.634;2023-04-15T08:24:04;6.00;;;2.10;;
21480;SDS011;10902;48.158;8.634;2023-04-15T08:26:30;4.63;;;1.90;;
21480;SDS011;10902;48.158;8.634;2023-04-15T08:28:56;6.13;;;2.20;;
21480;SDS011;10902;48.158;8.634;2023-04-15T08:31:22;8.13;;;2.30;;
21480;SDS011;10902;48.158;8.634;2023-04-15T08:33:47;6.57;;;2.85;;
21480;SDS011;10902;48.158;8.634;2023-04-15T08:36:15;6.20;;;2.28;;
21480;SDS011;10902;48.158;8.634;2023-04-15T08:38:43;6.28;;;1.90;;
21480;SDS011;10902;48.158;8.634;2023-04-15T08:41:46;5.10;;;1.50;;
21480;SDS011;10902;48.158;8.634;2023-04-15T08:44:21;7.40;;;1.83;;
21480;SDS011;10902;48.158;8.634;2023-04-15T08:46:50;5.50;;;1.75;;
21480;SDS011;10902;48.158;8.634;2023-04-15T08:49:16;7.65;;;1.60;;
21480;SDS011;10902;48.158;8.634;2023-04-15T08:51:43;4.88;;;1.58;;
21480;SDS011;10902;48.158;8.634;2023-04-15T08:54:09;5.32;;;1.58;;
21480;SDS011;10902;48.158;8.634;2023-04-15T08:56:37;3.97;;;1.30;;
21480;SDS011;10902;48.158;8.634;2023-04-15T08:59:03;5.68;;;1.70;;
21480;SDS011;10902;48.158;8.634;2023-04-15T09:01:29;5.25;;;1.30;;
21480;SDS011;10902;48.158;8.634;2023-04-15T09:03:56;5.50;;;1.60;;
21480;SDS011;10902;48.158;8.634;2023-04-15T09:06:23;5.25;;;1.58;;
21480;SDS011;10902;48.158;8.634;2023-04-15T09:08:49;7.47;;;2.10;;
21480;SDS011;10902;48.158;8.634;2023-04-15T09:11:16;5.47;;;1.73;;
21480;SDS011;10902;48.158;8.634;2023-04-15T09:13:42;4.03;;;1.05;;
21480;SDS011;10902;48.158;8.634;2023-04-15T09:16:07;4.55;;;1.10;;
21480;SDS011;10902;48.158;8.634;2023-04-15T09:18:33;4.63;;;1.40;;
21480;SDS011;10902;48.158;8.634;2023-04-15T09:21:05;5.65;;;1.45;;
21480;SDS011;10902;48.158;8.634;2023-04-15T09:23:36;6.63;;;2.33;;
21480;SDS011;10902;48.158;8.634;2023-04-15T09:26:03;8.15;;;2.58;;
21480;SDS011;10902;48.158;8.634;2023-04-15T09:28:29;4.80;;;0.95;;
21480;SDS011;10902;48.158;8.634;2023-04-15T09:30:59;5.65;;;1.10;;
21480;SDS011;10902;48.158;8.634;2023-04-15T09:33:26;5.13;;;1.27;;
21480;SDS011;10902;48.158;8.634;2023-04-15T09:35:56;13.55;;;4.65;;
21480;SDS011;10902;48.158;8.634;2023-04-15T09:38:26;4.40;;;1.40;;
21480;SDS011;10902;48.158;8.634;2023-04-15T09:40:52;5.63;;;1.58;;
21480;SDS011;10902;48.158;8.634;2023-04-15T09:43:18;4.80;;;1.42;;
21480;SDS011;10902;48.158;8.634;2023-04-15T09:45:48;5.57;;;1.25;;
21480;SDS011;10902;48.158;8.634;2023-04-15T09:48:16;4.80;;;1.00;;
21480;SDS011;10902;48.158;8.634;2023-04-15T09:50:47;4.88;;;0.93;;
21480;SDS011;10902;48.158;8.634;2023-04-15T09:53:20;4.50;;;1.20;;
21480;SDS011;10902;48.158;8.634;2023-04-15T09:55:54;4.40;;;1.35;;
21480;SDS011;10902;48.158;8.634;2023-04-15T09:58:21;6.75;;;1.40;;
21480;SDS011;10902;48.158;8.634;2023-04-15T10:00:47;5.03;;;1.00;;
21480;SDS011;10902;48.158;8.634;2023-04-15T10:03:17;4.47;;;1.20;;
21480;SDS011;10902;48.158;8.634;2023-04-15T10:05:47;3.75;;;1.17;;
21480;SDS011;10902;48.158;8.634;2023-04-15T10:08:18;4.30;;;1.00;;
21480;SDS011;10902;48.158;8.634;2023-04-15T10:10:46;4.18;;;1.17;;
21480;SDS011;10902;48.158;8.634;2023-04-15T10:13:16;4.65;;;1.10;;
21480;SDS011;10902;48.158;8.634;2023-04-15T10:15:43;7.18;;;1.13;;
21480;SDS011;10902;48.158;8.634;2023-04-15T10:18:16;4.35;;;1.00;;
21480;SDS011;10902;48.158;8.634;2023-04-15T10:20:45;5.43;;;0.80;;
21480;SDS011;10902;48.158;8.634;2023-04-15T10:23:11;4.47;;;1.15;;
21480;SDS011;10902;48.158;8.634;2023-04-15T10:25:38;5.32;;;1.10;;
21480;SDS011;10902;48.158;8.634;2023-04-15T10:28:05;4.18;;;1.05;;
21480;SDS011;10902;48.158;8.634;2023-04-15T10:30:32;4.95;;;1.40;;
21480;SDS011;10902;48.158;8.634;2023-04-15T10:32:58;5.45;;;1.05;;
21480;SDS011;10902;48.158;8.634;2023-04-15T10:35:28;4.20;;;1.70;;
21480;SDS011;10902;48.158;8.634;2023-04-15T10:37:56;4.97;;;1.33;;
21480;SDS011;10902;48.158;8.634;2023-04-15T10:42:55;5.22;;;1.40;;
21480;SDS011;10902;48.158;8.634;2023-04-15T10:45:26;4.28;;;1.30;;
21480;SDS011;10902;48.158;8.634;2023-04-15T10:48:01;4.60;;;1.38;;
21480;SDS011;10902;48.158;8.634;2023-04-15T10:50:29;7.55;;;1.42;;
21480;SDS011;10902;48.158;8.634;2023-04-15T10:52:55;6.00;;;1.38;;
21480;SDS011;10902;48.158;8.634;2023-04-15T10:55:25;5.97;;;1.42;;
21480;SDS011;10902;48.158;8.634;2023-04-15T10:57:57;6.03;;;1.10;;
21480;SDS011;10902;48.158;8.634;2023-04-15T11:00:25;4.50;;;1.20;;
21480;SDS011;10902;48.158;8.634;2023-04-15T11:02:58;5.22;;;1.50;;
21480;SDS011;10902;48.158;8.634;2023-04-15T11:05:49;3.92;;;1.00;;
21480;SDS011;10902;48.158;8.634;2023-04-15T11:08:18;4.15;;;1.40;;
21480;SDS011;10902;48.158;8.634;2023-04-15T11:20:36;6.80;;;1.90;;
21480;SDS011;10902;48.158;8.634;2023-04-15T11:23:08;3.97;;;1.00;;
21480;SDS011;10902;48.158;8.634;2023-04-15T11:25:34;3.85;;;1.10;;
21480;SDS011;10902;48.158;8.634;2023-04-15T11:28:04;4.70;;;1.05;;
21480;SDS011;10902;48.158;8.634;2023-04-15T11:30:31;5.30;;;1.15;;
21480;SDS011;10902;48.158;8.634;2023-04-15T11:33:01;6.38;;;1.75;;
21480;SDS011;10902;48.158;8.634;2023-04-15T11:35:29;3.85;;;1.20;;
21480;SDS011;10902;48.158;8.634;2023-04-15T11:37:55;3.75;;;1.00;;
21480;SDS011;10902;48.158;8.634;2023-04-15T11:40:21;3.33;;;1.15;;
21480;SDS011;10902;48.158;8.634;2023-04-15T11:43:04;4.60;;;1.30;;
21480;SDS011;10902;48.158;8.634;2023-04-15T11:45:33;4.65;;;1.10;;
21480;SDS011;10902;48.158;8.634;2023-04-15T11:48:12;3.17;;;1.00;;
21480;SDS011;10902;48.158;8.634;2023-04-15T11:50:39;4.90;;;1.10;;
21480;SDS011;10902;48.158;8.634;2023-04-15T11:53:06;5.05;;;1.33;;
21480;SDS011;10902;48.158;8.634;2023-04-15T11:55:42;4.47;;;1.10;;
21480;SDS011;10902;48.158;8.634;2023-04-15T11:58:10;5.57;;;1.08;;
21480;SDS011;10902;48.158;8.634;2023-04-15T12:00:57;6.43;;;1.17;;
21480;SDS011;10902;48.158;8.634;2023-04-15T12:03:40;7.20;;;1.38;;
21480;SDS011;10902;48.158;8.634;2023-04-15T12:08:54;3.03;;;0.80;;
21480;SDS011;10902;48.158;8.634;2023-04-15T12:14:30;3.97;;;0.93;;
21480;SDS011;10902;48.158;8.634;2023-04-15T12:17:00;4.30;;;0.93;;
21480;SDS011;10902;48.158;8.634;2023-04-15T12:19:35;5.20;;;1.20;;
21480;SDS011;10902;48.158;8.634;2023-04-15T12:22:04;4.82;;;1.00;;
21480;SDS011;10902;48.158;8.634;2023-04-15T12:24:34;4.35;;;0.98;;
21480;SDS011;10902;48.158;8.634;2023-04-15T12:27:02;3.40;;;0.95;;
21480;SDS011;10902;48.158;8.634;2023-04-15T12:29:29;4.53;;;1.20;;
21480;SDS011;10902;48.158;8.634;2023-04-15T12:31:56;4.25;;;0.98;;
21480;SDS011;10902;48.158;8.634;2023-04-15T12:34:27;5.35;;;1.05;;
21480;SDS011;10902;48.158;8.634;2023-04-15T12:36:54;4.43;;;1.00;;
21480;SDS011;10902;48.158;8.634;2023-04-15T12:39:23;5.85;;;1.20;;
21480;SDS011;10902;48.158;8.634;2023-04-15T12:41:51;4.20;;;1.20;;
21480;SDS011;10902;48.158;8.634;2023-04-15T12:44:17;5.03;;;1.10;;
21480;SDS011;10902;48.158;8.634;2023-04-15T12:46:43;4.47;;;1.20;;
21480;SDS011;10902;48.158;8.634;2023-04-15T12:49:10;6.22;;;1.63;;
21480;SDS011;10902;48.158;8.634;2023-04-15T12:51:36;5.05;;;1.38;;
21480;SDS011;10902;48.158;8.634;2023-04-15T12:54:01;5.10;;;1.50;;
21480;SDS011;10902;48.158;8.634;2023-04-15T12:56:27;4.32;;;1.20;;
21480;SDS011;10902;48.158;8.634;2023-04-15T12:58:52;5.03;;;1.40;;
21480;SDS011;10902;48.158;8.634;2023-04-15T13:01:18;5.90;;;1.42;;
21480;SDS011;10902;48.158;8.634;2023-04-15T13:03:44;4.85;;;1.67;;
21480;SDS011;10902;48.158;8.634;2023-04-15T13:06:10;4.78;;;1.63;;
21480;SDS011;10902;48.158;8.634;2023-04-15T13:08:36;4.43;;;1.50;;
21480;SDS011;10902;48.158;8.634;2023-04-15T13:11:01;6.03;;;1.63;;
21480;SDS011;10902;48.158;8.634;2023-04-15T13:13:27;3.50;;;1.17;;
21480;SDS011;10902;48.158;8.634;2023-04-15T13:15:55;4.97;;;1.40;;
21480;SDS011;10902;48.158;8.634;2023-04-15T13:18:22;4.72;;;1.40;;
21480;SDS011;10902;48.158;8.634;2023-04-15T13:20:48;5.40;;;1.08;;
21480;SDS011;10902;48.158;8.634;2023-04-15T13:23:14;5.15;;;1.33;;
21480;SDS011;10902;48.158;8.634;2023-04-15T13:25:40;5.32;;;1.65;;
21480;SDS011;10902;48.158;8.634;2023-04-15T13:28:06;5.15;;;1.70;;
21480;SDS011;10902;48.158;8.634;2023-04-15T13:30:31;6.97;;;1.27;;
21480;SDS011;10902;48.158;8.634;2023-04-15T13:32:57;5.68;;;1.23;;
21480;SDS011;10902;48.158;8.634;2023-04-15T13:35:23;5.28;;;1.13;;
21480;SDS011;10902;48.158;8.634;2023-04-15T13:37:48;3.90;;;1.38;;
21480;SDS011;10902;48.158;8.634;2023-04-15T13:40:14;4.60;;;1.38;;
21480;SDS011;10902;48.158;8.634;2023-04-15T13:42:41;7.20;;;1.55;;
21480;SDS011;10902;48.158;8.634;2023-04-15T13:45:07;5.40;;;1.45;;
21480;SDS011;10902;48.158;8.634;2023-04-15T13:47:33;7.05;;;1.80;;
21480;SDS011;10902;48.158;8.634;2023-04-15T13:49:58;7.70;;;1.40;;
21480;SDS011;10902;48.158;8.634;2023-04-15T13:52:24;5.10;;;1.30;;
21480;SDS011;10902;48.158;8.634;2023-04-15T13:54:49;5.15;;;1.10;;
21480;SDS011;10902;48.158;8.634;2023-04-15T13:57:15;4.55;;;1.38;;
21480;SDS011;10902;48.158;8.634;2023-04-15T13:59:41;4.03;;;1.40;;
21480;SDS011;10902;48.158;8.634;2023-04-15T14:02:08;7.90;;;1.10;;
21480;SDS011;10902;48.158;8.634;2023-04-15T14:04:33;6.75;;;1.20;;
21480;SDS011;10902;48.158;8.634;2023-04-15T14:06:59;6.20;;;1.67;;
21480;SDS011;10902;48.158;8.634;2023-04-15T14:09:25;3.97;;;1.30;;
21480;SDS011;10902;48.158;8.634;2023-04-15T14:11:50;4.57;;;1.13;;
21480;SDS011;10902;48.158;8.634;2023-04-15T14:14:16;4.18;;;1.27;;
21480;SDS011;10902;48.158;8.634;2023-04-15T14:16:41;3.80;;;1.35;;
21480;SDS011;10902;48.158;8.634;2023-04-15T14:19:07;4.57;;;1.20;;
21480;SDS011;10902;48.158;8.634;2023-04-15T14:21:33;4.97;;;1.42;;
21480;SDS011;10902;48.158;8.634;2023-04-15T14:23:58;3.78;;;1.20;;
21480;SDS011;10902;48.158;8.634;2023-04-15T14:26:24;4.78;;;1.10;;
21480;SDS011;10902;48.158;8.634;2023-04-15T14:28:50;3.92;;;1.27;;
21480;SDS011;10902;48.158;8.634;2023-04-15T14:31:16;5.05;;;1.70;;
21480;SDS011;10902;48.158;8.634;2023-04-15T14:33:42;3.83;;;1.35;;
21480;SDS011;10902;48.158;8.634;2023-04-15T14:36:08;4.47;;;1.55;;
21480;SDS011;10902;48.158;8.634;2023-04-15T14:38:34;5.00;;;1.50;;
21480;SDS011;10902;48.158;8.634;2023-04-15T14:41:04;4.15;;;1.50;;
21480;SDS011;10902;48.158;8.634;2023-04-15T14:43:30;5.00;;;1.35;;
21480;SDS011;10902;48.158;8.634;2023-04-15T14:45:56;4.60;;;1.50;;
21480;SDS011;10902;48.158;8.634;2023-04-15T14:48:21;3.38;;;1.20;;
21480;SDS011;10902;48.158;8.634;2023-04-15T14:50:47;4.20;;;1.10;;
21480;SDS011;10902;48.158;8.634;2023-04-15T14:53:13;5.68;;;1.40;;
21480;SDS011;10902;48.158;8.634;2023-04-15T14:55:38;4.53;;;1.20;;
21480;SDS011;10902;48.158;8.634;2023-04-15T14:58:05;3.75;;;1.45;;
21480;SDS011;10902;48.158;8.634;2023-04-15T15:00:32;3.15;;;1.00;;